<?xml version="1.0" encoding="UTF-8" standalone="no" ?>
<gpx xmlns="http://www.topografix.com/GPX/1/1" xmlns:xsi="http://www.w3.org/2001/XMLSchema-instance" xsi:schemaLocation="http://www.topografix.com/GPX/1/1 http://www.topografix.com/GPX/1/1/gpx.xsd" version="1.1" creator="VisuGPX - https://www.visugpx.com">
  <metadata>
    <name>Base VRTT Gevaudan Lagogne</name>
  </metadata>
  <trk>
    <name><![CDATA[ESI0330 - CIRCUIT DE BESSETTES]]></name>
    <extensions>
      <line xmlns="http://www.topografix.com/GPX/gpx_style/0/2">
        <color>0000FF</color>
        <width>4</width>
      </line>
    </extensions>
    <trkseg>
      <trkpt lat="44.73835" lon="3.78052">
        <ele>1016.9597167969</ele>
        <time>2020-10-16T11:54:33.000Z</time>
      </trkpt>
      <trkpt lat="44.73799" lon="3.78057">
        <ele>1019.150390625</ele>
        <time>2020-10-16T11:54:33.007Z</time>
      </trkpt>
      <trkpt lat="44.73785" lon="3.78054">
        <ele>1020.1033935547</ele>
        <time>2020-10-16T11:54:33.017Z</time>
      </trkpt>
      <trkpt lat="44.73722" lon="3.78005">
        <ele>1023.7369384766</ele>
        <time>2020-10-16T11:54:33.042Z</time>
      </trkpt>
      <trkpt lat="44.73694" lon="3.77996">
        <ele>1025.2646484375</ele>
        <time>2020-10-16T11:54:33.072Z</time>
      </trkpt>
      <trkpt lat="44.73638" lon="3.78019">
        <ele>1029.4943847656</ele>
        <time>2020-10-16T11:54:33.114Z</time>
      </trkpt>
      <trkpt lat="44.73596" lon="3.78012">
        <ele>1032.45703125</ele>
        <time>2020-10-16T11:54:33.164Z</time>
      </trkpt>
      <trkpt lat="44.73579" lon="3.78026">
        <ele>1033.2507324219</ele>
        <time>2020-10-16T11:54:33.218Z</time>
      </trkpt>
      <trkpt lat="44.73541" lon="3.78033">
        <ele>1035.9375</ele>
        <time>2020-10-16T11:54:33.280Z</time>
      </trkpt>
      <trkpt lat="44.73513" lon="3.78024">
        <ele>1038.7584228516</ele>
        <time>2020-10-16T11:54:33.348Z</time>
      </trkpt>
      <trkpt lat="44.73483" lon="3.78033">
        <ele>1042.3112792969</ele>
        <time>2020-10-16T11:54:33.422Z</time>
      </trkpt>
      <trkpt lat="44.7336" lon="3.78011">
        <ele>1047.4913330078</ele>
        <time>2020-10-16T11:54:33.521Z</time>
      </trkpt>
      <trkpt lat="44.73296" lon="3.78022">
        <ele>1049.6722412109</ele>
        <time>2020-10-16T11:54:33.633Z</time>
      </trkpt>
      <trkpt lat="44.73252" lon="3.78003">
        <ele>1052.3666992188</ele>
        <time>2020-10-16T11:54:33.754Z</time>
      </trkpt>
      <trkpt lat="44.73249" lon="3.78014">
        <ele>1052.1115722656</ele>
        <time>2020-10-16T11:54:33.877Z</time>
      </trkpt>
      <trkpt lat="44.73249" lon="3.78014">
        <ele>1052.1114501953</ele>
        <time>2020-10-16T11:54:34.000Z</time>
      </trkpt>
      <trkpt lat="44.73245" lon="3.78025">
        <ele>1051.8757324219</ele>
        <time>2020-10-16T11:54:34.124Z</time>
      </trkpt>
      <trkpt lat="44.73238" lon="3.78049">
        <ele>1051.3787841797</ele>
        <time>2020-10-16T11:54:34.252Z</time>
      </trkpt>
      <trkpt lat="44.73233" lon="3.78061">
        <ele>1051.078125</ele>
        <time>2020-10-16T11:54:34.382Z</time>
      </trkpt>
      <trkpt lat="44.73226" lon="3.78083">
        <ele>1050.2436523438</ele>
        <time>2020-10-16T11:54:34.515Z</time>
      </trkpt>
      <trkpt lat="44.73222" lon="3.781">
        <ele>1049.5806884766</ele>
        <time>2020-10-16T11:54:34.651Z</time>
      </trkpt>
      <trkpt lat="44.73218" lon="3.78117">
        <ele>1048.7796630859</ele>
        <time>2020-10-16T11:54:34.789Z</time>
      </trkpt>
      <trkpt lat="44.73211" lon="3.7813">
        <ele>1048.6854248047</ele>
        <time>2020-10-16T11:54:34.930Z</time>
      </trkpt>
      <trkpt lat="44.73207" lon="3.7814">
        <ele>1048.5715332031</ele>
        <time>2020-10-16T11:54:35.072Z</time>
      </trkpt>
      <trkpt lat="44.73206" lon="3.78151">
        <ele>1048.2203369141</ele>
        <time>2020-10-16T11:54:35.216Z</time>
      </trkpt>
      <trkpt lat="44.73206" lon="3.7817">
        <ele>1047.5201416016</ele>
        <time>2020-10-16T11:54:35.363Z</time>
      </trkpt>
      <trkpt lat="44.73207" lon="3.78189">
        <ele>1046.7547607422</ele>
        <time>2020-10-16T11:54:35.512Z</time>
      </trkpt>
      <trkpt lat="44.73209" lon="3.78206">
        <ele>1046.2379150391</ele>
        <time>2020-10-16T11:54:35.664Z</time>
      </trkpt>
      <trkpt lat="44.73207" lon="3.78217">
        <ele>1046.0906982422</ele>
        <time>2020-10-16T11:54:35.817Z</time>
      </trkpt>
      <trkpt lat="44.73205" lon="3.78233">
        <ele>1045.8668212891</ele>
        <time>2020-10-16T11:54:35.973Z</time>
      </trkpt>
      <trkpt lat="44.73203" lon="3.7825">
        <ele>1045.5965576172</ele>
        <time>2020-10-16T11:54:36.131Z</time>
      </trkpt>
      <trkpt lat="44.73201" lon="3.78261">
        <ele>1045.4681396484</ele>
        <time>2020-10-16T11:54:36.291Z</time>
      </trkpt>
      <trkpt lat="44.73197" lon="3.78274">
        <ele>1045.1654052734</ele>
        <time>2020-10-16T11:54:36.453Z</time>
      </trkpt>
      <trkpt lat="44.73187" lon="3.78298">
        <ele>1044.6716308594</ele>
        <time>2020-10-16T11:54:36.619Z</time>
      </trkpt>
      <trkpt lat="44.73184" lon="3.78308">
        <ele>1044.4102783203</ele>
        <time>2020-10-16T11:54:36.786Z</time>
      </trkpt>
      <trkpt lat="44.7318" lon="3.78326">
        <ele>1043.9283447266</ele>
        <time>2020-10-16T11:54:36.956Z</time>
      </trkpt>
      <trkpt lat="44.73179" lon="3.7834">
        <ele>1043.5428466797</ele>
        <time>2020-10-16T11:54:37.128Z</time>
      </trkpt>
      <trkpt lat="44.73181" lon="3.78366">
        <ele>1043.2471923828</ele>
        <time>2020-10-16T11:54:37.304Z</time>
      </trkpt>
      <trkpt lat="44.73181" lon="3.78389">
        <ele>1043.5026855469</ele>
        <time>2020-10-16T11:54:37.483Z</time>
      </trkpt>
      <trkpt lat="44.73181" lon="3.78398">
        <ele>1043.6090087891</ele>
        <time>2020-10-16T11:54:37.663Z</time>
      </trkpt>
      <trkpt lat="44.73181" lon="3.78409">
        <ele>1043.7657470703</ele>
        <time>2020-10-16T11:54:37.845Z</time>
      </trkpt>
      <trkpt lat="44.73179" lon="3.78418">
        <ele>1044.0494384766</ele>
        <time>2020-10-16T11:54:38.028Z</time>
      </trkpt>
      <trkpt lat="44.73178" lon="3.78428">
        <ele>1044.5487060547</ele>
        <time>2020-10-16T11:54:38.213Z</time>
      </trkpt>
      <trkpt lat="44.7318" lon="3.78444">
        <ele>1044.7670898438</ele>
        <time>2020-10-16T11:54:38.400Z</time>
      </trkpt>
      <trkpt lat="44.73186" lon="3.7846">
        <ele>1044.5775146484</ele>
        <time>2020-10-16T11:54:38.590Z</time>
      </trkpt>
      <trkpt lat="44.73185" lon="3.78472">
        <ele>1044.7486572266</ele>
        <time>2020-10-16T11:54:38.781Z</time>
      </trkpt>
      <trkpt lat="44.73183" lon="3.78496">
        <ele>1045.1831054688</ele>
        <time>2020-10-16T11:54:38.976Z</time>
      </trkpt>
      <trkpt lat="44.7318" lon="3.78519">
        <ele>1045.9616699219</ele>
        <time>2020-10-16T11:54:39.174Z</time>
      </trkpt>
      <trkpt lat="44.73178" lon="3.78536">
        <ele>1046.1989746094</ele>
        <time>2020-10-16T11:54:39.375Z</time>
      </trkpt>
      <trkpt lat="44.73173" lon="3.78556">
        <ele>1046.5629882812</ele>
        <time>2020-10-16T11:54:39.579Z</time>
      </trkpt>
      <trkpt lat="44.73168" lon="3.78587">
        <ele>1046.3701171875</ele>
        <time>2020-10-16T11:54:39.787Z</time>
      </trkpt>
      <trkpt lat="44.73162" lon="3.7862">
        <ele>1046.0258789062</ele>
        <time>2020-10-16T11:54:40.000Z</time>
      </trkpt>
      <trkpt lat="44.73158" lon="3.78648">
        <ele>1046.1568603516</ele>
        <time>2020-10-16T11:54:40.217Z</time>
      </trkpt>
      <trkpt lat="44.73154" lon="3.78683">
        <ele>1045.8634033203</ele>
        <time>2020-10-16T11:54:40.439Z</time>
      </trkpt>
      <trkpt lat="44.7315" lon="3.787">
        <ele>1044.9350585938</ele>
        <time>2020-10-16T11:54:40.664Z</time>
      </trkpt>
      <trkpt lat="44.73144" lon="3.78731">
        <ele>1043.7554931641</ele>
        <time>2020-10-16T11:54:40.893Z</time>
      </trkpt>
      <trkpt lat="44.73134" lon="3.78778">
        <ele>1043.3581542969</ele>
        <time>2020-10-16T11:54:41.129Z</time>
      </trkpt>
      <trkpt lat="44.73129" lon="3.78806">
        <ele>1041.6330566406</ele>
        <time>2020-10-16T11:54:41.369Z</time>
      </trkpt>
      <trkpt lat="44.73125" lon="3.78819">
        <ele>1040.7492675781</ele>
        <time>2020-10-16T11:54:41.611Z</time>
      </trkpt>
      <trkpt lat="44.7312" lon="3.78832">
        <ele>1039.9934082031</ele>
        <time>2020-10-16T11:54:41.856Z</time>
      </trkpt>
      <trkpt lat="44.73111" lon="3.78852">
        <ele>1039.5411376953</ele>
        <time>2020-10-16T11:54:42.104Z</time>
      </trkpt>
      <trkpt lat="44.73107" lon="3.7885">
        <ele>1040.2290039062</ele>
        <time>2020-10-16T11:54:42.353Z</time>
      </trkpt>
      <trkpt lat="44.73102" lon="3.78836">
        <ele>1041.5905761719</ele>
        <time>2020-10-16T11:54:42.604Z</time>
      </trkpt>
      <trkpt lat="44.73098" lon="3.78816">
        <ele>1043.7330322266</ele>
        <time>2020-10-16T11:54:42.858Z</time>
      </trkpt>
      <trkpt lat="44.73092" lon="3.78796">
        <ele>1046.0533447266</ele>
        <time>2020-10-16T11:54:43.115Z</time>
      </trkpt>
      <trkpt lat="44.73084" lon="3.78773">
        <ele>1048.7434082031</ele>
        <time>2020-10-16T11:54:43.375Z</time>
      </trkpt>
      <trkpt lat="44.73074" lon="3.78755">
        <ele>1050.2563476562</ele>
        <time>2020-10-16T11:54:43.639Z</time>
      </trkpt>
      <trkpt lat="44.7307" lon="3.78745">
        <ele>1050.8018798828</ele>
        <time>2020-10-16T11:54:43.904Z</time>
      </trkpt>
      <trkpt lat="44.73067" lon="3.78729">
        <ele>1051.3233642578</ele>
        <time>2020-10-16T11:54:44.172Z</time>
      </trkpt>
      <trkpt lat="44.73067" lon="3.78714">
        <ele>1051.5549316406</ele>
        <time>2020-10-16T11:54:44.442Z</time>
      </trkpt>
      <trkpt lat="44.73065" lon="3.78706">
        <ele>1051.9006347656</ele>
        <time>2020-10-16T11:54:44.713Z</time>
      </trkpt>
      <trkpt lat="44.73062" lon="3.78699">
        <ele>1052.3366699219</ele>
        <time>2020-10-16T11:54:44.985Z</time>
      </trkpt>
      <trkpt lat="44.7306" lon="3.78694">
        <ele>1052.7042236328</ele>
        <time>2020-10-16T11:54:45.258Z</time>
      </trkpt>
      <trkpt lat="44.73054" lon="3.78691">
        <ele>1053.3035888672</ele>
        <time>2020-10-16T11:54:45.532Z</time>
      </trkpt>
      <trkpt lat="44.73048" lon="3.78685">
        <ele>1054.0126953125</ele>
        <time>2020-10-16T11:54:45.808Z</time>
      </trkpt>
      <trkpt lat="44.73043" lon="3.7868">
        <ele>1054.5281982422</ele>
        <time>2020-10-16T11:54:46.085Z</time>
      </trkpt>
      <trkpt lat="44.73033" lon="3.7867">
        <ele>1055.0572509766</ele>
        <time>2020-10-16T11:54:46.365Z</time>
      </trkpt>
      <trkpt lat="44.73024" lon="3.78659">
        <ele>1054.8852539062</ele>
        <time>2020-10-16T11:54:46.647Z</time>
      </trkpt>
      <trkpt lat="44.73017" lon="3.78647">
        <ele>1054.7451171875</ele>
        <time>2020-10-16T11:54:46.931Z</time>
      </trkpt>
      <trkpt lat="44.73011" lon="3.78636">
        <ele>1054.6890869141</ele>
        <time>2020-10-16T11:54:47.217Z</time>
      </trkpt>
      <trkpt lat="44.73005" lon="3.78622">
        <ele>1054.6342773438</ele>
        <time>2020-10-16T11:54:47.505Z</time>
      </trkpt>
      <trkpt lat="44.72999" lon="3.78608">
        <ele>1054.5690917969</ele>
        <time>2020-10-16T11:54:47.796Z</time>
      </trkpt>
      <trkpt lat="44.72982" lon="3.78583">
        <ele>1054.8250732422</ele>
        <time>2020-10-16T11:54:48.092Z</time>
      </trkpt>
      <trkpt lat="44.72972" lon="3.78564">
        <ele>1055.1531982422</ele>
        <time>2020-10-16T11:54:48.391Z</time>
      </trkpt>
      <trkpt lat="44.72971" lon="3.78556">
        <ele>1055.3793945312</ele>
        <time>2020-10-16T11:54:48.691Z</time>
      </trkpt>
      <trkpt lat="44.7297" lon="3.78544">
        <ele>1055.740234375</ele>
        <time>2020-10-16T11:54:48.993Z</time>
      </trkpt>
      <trkpt lat="44.72967" lon="3.78531">
        <ele>1055.9163818359</ele>
        <time>2020-10-16T11:54:49.297Z</time>
      </trkpt>
      <trkpt lat="44.72964" lon="3.78513">
        <ele>1055.8532714844</ele>
        <time>2020-10-16T11:54:49.603Z</time>
      </trkpt>
      <trkpt lat="44.72965" lon="3.78494">
        <ele>1056.0734863281</ele>
        <time>2020-10-16T11:54:49.912Z</time>
      </trkpt>
      <trkpt lat="44.72965" lon="3.78473">
        <ele>1056.3010253906</ele>
        <time>2020-10-16T11:54:50.224Z</time>
      </trkpt>
      <trkpt lat="44.72965" lon="3.78453">
        <ele>1056.5614013672</ele>
        <time>2020-10-16T11:54:50.539Z</time>
      </trkpt>
      <trkpt lat="44.72964" lon="3.78435">
        <ele>1056.3916015625</ele>
        <time>2020-10-16T11:54:50.857Z</time>
      </trkpt>
      <trkpt lat="44.72962" lon="3.7842">
        <ele>1057.0645751953</ele>
        <time>2020-10-16T11:54:51.177Z</time>
      </trkpt>
      <trkpt lat="44.72957" lon="3.78394">
        <ele>1058.3850097656</ele>
        <time>2020-10-16T11:54:51.501Z</time>
      </trkpt>
      <trkpt lat="44.7295" lon="3.78373">
        <ele>1059.328125</ele>
        <time>2020-10-16T11:54:51.828Z</time>
      </trkpt>
      <trkpt lat="44.72942" lon="3.78359">
        <ele>1059.8441162109</ele>
        <time>2020-10-16T11:54:52.157Z</time>
      </trkpt>
      <trkpt lat="44.72933" lon="3.78344">
        <ele>1060.1300048828</ele>
        <time>2020-10-16T11:54:52.489Z</time>
      </trkpt>
      <trkpt lat="44.72921" lon="3.78323">
        <ele>1060.3868408203</ele>
        <time>2020-10-16T11:54:52.825Z</time>
      </trkpt>
      <trkpt lat="44.72911" lon="3.78302">
        <ele>1060.7689208984</ele>
        <time>2020-10-16T11:54:53.165Z</time>
      </trkpt>
      <trkpt lat="44.72903" lon="3.78282">
        <ele>1061.1301269531</ele>
        <time>2020-10-16T11:54:53.508Z</time>
      </trkpt>
      <trkpt lat="44.72892" lon="3.78259">
        <ele>1061.4045410156</ele>
        <time>2020-10-16T11:54:53.855Z</time>
      </trkpt>
      <trkpt lat="44.72874" lon="3.78229">
        <ele>1061.5581054688</ele>
        <time>2020-10-16T11:54:54.207Z</time>
      </trkpt>
      <trkpt lat="44.72861" lon="3.78207">
        <ele>1061.3347167969</ele>
        <time>2020-10-16T11:54:54.563Z</time>
      </trkpt>
      <trkpt lat="44.72843" lon="3.78177">
        <ele>1060.9489746094</ele>
        <time>2020-10-16T11:54:54.925Z</time>
      </trkpt>
      <trkpt lat="44.72826" lon="3.78154">
        <ele>1060.6844482422</ele>
        <time>2020-10-16T11:54:55.292Z</time>
      </trkpt>
      <trkpt lat="44.72803" lon="3.78131">
        <ele>1060.10546875</ele>
        <time>2020-10-16T11:54:55.665Z</time>
      </trkpt>
      <trkpt lat="44.72791" lon="3.78115">
        <ele>1059.9577636719</ele>
        <time>2020-10-16T11:54:56.041Z</time>
      </trkpt>
      <trkpt lat="44.72784" lon="3.78101">
        <ele>1059.9285888672</ele>
        <time>2020-10-16T11:54:56.419Z</time>
      </trkpt>
      <trkpt lat="44.72772" lon="3.78072">
        <ele>1059.8328857422</ele>
        <time>2020-10-16T11:54:56.802Z</time>
      </trkpt>
      <trkpt lat="44.7276" lon="3.78045">
        <ele>1059.7484130859</ele>
        <time>2020-10-16T11:54:57.190Z</time>
      </trkpt>
      <trkpt lat="44.72752" lon="3.78031">
        <ele>1059.6343994141</ele>
        <time>2020-10-16T11:54:57.580Z</time>
      </trkpt>
      <trkpt lat="44.72741" lon="3.78018">
        <ele>1059.3785400391</ele>
        <time>2020-10-16T11:54:57.973Z</time>
      </trkpt>
      <trkpt lat="44.72729" lon="3.78004">
        <ele>1059.1127929688</ele>
        <time>2020-10-16T11:54:58.369Z</time>
      </trkpt>
      <trkpt lat="44.72707" lon="3.77977">
        <ele>1058.6424560547</ele>
        <time>2020-10-16T11:54:58.771Z</time>
      </trkpt>
      <trkpt lat="44.72686" lon="3.77952">
        <ele>1059.0518798828</ele>
        <time>2020-10-16T11:54:59.179Z</time>
      </trkpt>
      <trkpt lat="44.72671" lon="3.77938">
        <ele>1059.3853759766</ele>
        <time>2020-10-16T11:54:59.590Z</time>
      </trkpt>
      <trkpt lat="44.72654" lon="3.7793">
        <ele>1059.2990722656</ele>
        <time>2020-10-16T11:55:00.005Z</time>
      </trkpt>
      <trkpt lat="44.72639" lon="3.77922">
        <ele>1059.1872558594</ele>
        <time>2020-10-16T11:55:00.423Z</time>
      </trkpt>
      <trkpt lat="44.72627" lon="3.77913">
        <ele>1059.0126953125</ele>
        <time>2020-10-16T11:55:00.844Z</time>
      </trkpt>
      <trkpt lat="44.72622" lon="3.77906">
        <ele>1058.8165283203</ele>
        <time>2020-10-16T11:55:01.266Z</time>
      </trkpt>
      <trkpt lat="44.72617" lon="3.77901">
        <ele>1058.8714599609</ele>
        <time>2020-10-16T11:55:01.689Z</time>
      </trkpt>
      <trkpt lat="44.72605" lon="3.77888">
        <ele>1059.1079101562</ele>
        <time>2020-10-16T11:55:02.115Z</time>
      </trkpt>
      <trkpt lat="44.72585" lon="3.77868">
        <ele>1059.5925292969</ele>
        <time>2020-10-16T11:55:02.546Z</time>
      </trkpt>
      <trkpt lat="44.72571" lon="3.77854">
        <ele>1059.9418945312</ele>
        <time>2020-10-16T11:55:02.981Z</time>
      </trkpt>
      <trkpt lat="44.72562" lon="3.77845">
        <ele>1060.3939208984</ele>
        <time>2020-10-16T11:55:03.418Z</time>
      </trkpt>
      <trkpt lat="44.72556" lon="3.77842">
        <ele>1060.7137451172</ele>
        <time>2020-10-16T11:55:03.856Z</time>
      </trkpt>
      <trkpt lat="44.72551" lon="3.77838">
        <ele>1060.9602050781</ele>
        <time>2020-10-16T11:55:04.295Z</time>
      </trkpt>
      <trkpt lat="44.72541" lon="3.77828">
        <ele>1061.4362792969</ele>
        <time>2020-10-16T11:55:04.737Z</time>
      </trkpt>
      <trkpt lat="44.72533" lon="3.77816">
        <ele>1061.7144775391</ele>
        <time>2020-10-16T11:55:05.181Z</time>
      </trkpt>
      <trkpt lat="44.72525" lon="3.77801">
        <ele>1061.9603271484</ele>
        <time>2020-10-16T11:55:05.628Z</time>
      </trkpt>
      <trkpt lat="44.72519" lon="3.77789">
        <ele>1062.0584716797</ele>
        <time>2020-10-16T11:55:06.077Z</time>
      </trkpt>
      <trkpt lat="44.7252" lon="3.77773">
        <ele>1061.8227539062</ele>
        <time>2020-10-16T11:55:06.528Z</time>
      </trkpt>
      <trkpt lat="44.72517" lon="3.77753">
        <ele>1061.5244140625</ele>
        <time>2020-10-16T11:55:06.982Z</time>
      </trkpt>
      <trkpt lat="44.7251" lon="3.77731">
        <ele>1061.0053710938</ele>
        <time>2020-10-16T11:55:07.439Z</time>
      </trkpt>
      <trkpt lat="44.72502" lon="3.77716">
        <ele>1060.8376464844</ele>
        <time>2020-10-16T11:55:07.899Z</time>
      </trkpt>
      <trkpt lat="44.72494" lon="3.77708">
        <ele>1061.0341796875</ele>
        <time>2020-10-16T11:55:08.361Z</time>
      </trkpt>
      <trkpt lat="44.72488" lon="3.77706">
        <ele>1061.4195556641</ele>
        <time>2020-10-16T11:55:08.824Z</time>
      </trkpt>
      <trkpt lat="44.72482" lon="3.77711">
        <ele>1062.0872802734</ele>
        <time>2020-10-16T11:55:09.289Z</time>
      </trkpt>
      <trkpt lat="44.72476" lon="3.77713">
        <ele>1062.5480957031</ele>
        <time>2020-10-16T11:55:09.755Z</time>
      </trkpt>
      <trkpt lat="44.7247" lon="3.7771">
        <ele>1062.7335205078</ele>
        <time>2020-10-16T11:55:10.222Z</time>
      </trkpt>
      <trkpt lat="44.72459" lon="3.77692">
        <ele>1062.7696533203</ele>
        <time>2020-10-16T11:55:10.693Z</time>
      </trkpt>
      <trkpt lat="44.72447" lon="3.77667">
        <ele>1063.1850585938</ele>
        <time>2020-10-16T11:55:11.168Z</time>
      </trkpt>
      <trkpt lat="44.72435" lon="3.77642">
        <ele>1063.900390625</ele>
        <time>2020-10-16T11:55:11.647Z</time>
      </trkpt>
      <trkpt lat="44.72428" lon="3.77619">
        <ele>1064.1800537109</ele>
        <time>2020-10-16T11:55:12.130Z</time>
      </trkpt>
      <trkpt lat="44.72421" lon="3.77598">
        <ele>1065.435546875</ele>
        <time>2020-10-16T11:55:12.616Z</time>
      </trkpt>
      <trkpt lat="44.72417" lon="3.77586">
        <ele>1067.4542236328</ele>
        <time>2020-10-16T11:55:13.104Z</time>
      </trkpt>
      <trkpt lat="44.72417" lon="3.77572">
        <ele>1069.2863769531</ele>
        <time>2020-10-16T11:55:13.594Z</time>
      </trkpt>
      <trkpt lat="44.72419" lon="3.77553">
        <ele>1070.5821533203</ele>
        <time>2020-10-16T11:55:14.087Z</time>
      </trkpt>
      <trkpt lat="44.72422" lon="3.77528">
        <ele>1071.8807373047</ele>
        <time>2020-10-16T11:55:14.583Z</time>
      </trkpt>
      <trkpt lat="44.72419" lon="3.7751">
        <ele>1073.7961425781</ele>
        <time>2020-10-16T11:55:15.082Z</time>
      </trkpt>
      <trkpt lat="44.72415" lon="3.77492">
        <ele>1075.9738769531</ele>
        <time>2020-10-16T11:55:15.584Z</time>
      </trkpt>
      <trkpt lat="44.7241" lon="3.77478">
        <ele>1077.9807128906</ele>
        <time>2020-10-16T11:55:16.088Z</time>
      </trkpt>
      <trkpt lat="44.72405" lon="3.77466">
        <ele>1079.3780517578</ele>
        <time>2020-10-16T11:55:16.594Z</time>
      </trkpt>
      <trkpt lat="44.72401" lon="3.77447">
        <ele>1080.8719482422</ele>
        <time>2020-10-16T11:55:17.103Z</time>
      </trkpt>
      <trkpt lat="44.72398" lon="3.77428">
        <ele>1081.6549072266</ele>
        <time>2020-10-16T11:55:17.614Z</time>
      </trkpt>
      <trkpt lat="44.72395" lon="3.77411">
        <ele>1082.3885498047</ele>
        <time>2020-10-16T11:55:18.128Z</time>
      </trkpt>
      <trkpt lat="44.7239" lon="3.77393">
        <ele>1083.4328613281</ele>
        <time>2020-10-16T11:55:18.645Z</time>
      </trkpt>
      <trkpt lat="44.72387" lon="3.77381">
        <ele>1084.1726074219</ele>
        <time>2020-10-16T11:55:19.164Z</time>
      </trkpt>
      <trkpt lat="44.72387" lon="3.77367">
        <ele>1084.3751220703</ele>
        <time>2020-10-16T11:55:19.684Z</time>
      </trkpt>
      <trkpt lat="44.72385" lon="3.77347">
        <ele>1084.3725585938</ele>
        <time>2020-10-16T11:55:20.207Z</time>
      </trkpt>
      <trkpt lat="44.72383" lon="3.77329">
        <ele>1083.6854248047</ele>
        <time>2020-10-16T11:55:20.733Z</time>
      </trkpt>
      <trkpt lat="44.7238" lon="3.77309">
        <ele>1083.2263183594</ele>
        <time>2020-10-16T11:55:21.262Z</time>
      </trkpt>
      <trkpt lat="44.72371" lon="3.77286">
        <ele>1083.6380615234</ele>
        <time>2020-10-16T11:55:21.795Z</time>
      </trkpt>
      <trkpt lat="44.72367" lon="3.77274">
        <ele>1083.7135009766</ele>
        <time>2020-10-16T11:55:22.330Z</time>
      </trkpt>
      <trkpt lat="44.7236" lon="3.77265">
        <ele>1084.5754394531</ele>
        <time>2020-10-16T11:55:22.866Z</time>
      </trkpt>
      <trkpt lat="44.72355" lon="3.77249">
        <ele>1085.8332519531</ele>
        <time>2020-10-16T11:55:23.405Z</time>
      </trkpt>
      <trkpt lat="44.72352" lon="3.7724">
        <ele>1086.6800537109</ele>
        <time>2020-10-16T11:55:23.945Z</time>
      </trkpt>
      <trkpt lat="44.7235" lon="3.77229">
        <ele>1087.4781494141</ele>
        <time>2020-10-16T11:55:24.487Z</time>
      </trkpt>
      <trkpt lat="44.7235" lon="3.77215">
        <ele>1088.2775878906</ele>
        <time>2020-10-16T11:55:25.031Z</time>
      </trkpt>
      <trkpt lat="44.72351" lon="3.77207">
        <ele>1088.7138671875</ele>
        <time>2020-10-16T11:55:25.576Z</time>
      </trkpt>
      <trkpt lat="44.72353" lon="3.77194">
        <ele>1089.2692871094</ele>
        <time>2020-10-16T11:55:26.123Z</time>
      </trkpt>
      <trkpt lat="44.72352" lon="3.77181">
        <ele>1089.9621582031</ele>
        <time>2020-10-16T11:55:26.672Z</time>
      </trkpt>
      <trkpt lat="44.72348" lon="3.77171">
        <ele>1090.5440673828</ele>
        <time>2020-10-16T11:55:27.222Z</time>
      </trkpt>
      <trkpt lat="44.72343" lon="3.77168">
        <ele>1091.16796875</ele>
        <time>2020-10-16T11:55:27.774Z</time>
      </trkpt>
      <trkpt lat="44.72335" lon="3.77165">
        <ele>1091.9074707031</ele>
        <time>2020-10-16T11:55:28.327Z</time>
      </trkpt>
      <trkpt lat="44.72334" lon="3.77154">
        <ele>1092.2805175781</ele>
        <time>2020-10-16T11:55:28.882Z</time>
      </trkpt>
      <trkpt lat="44.72328" lon="3.77138">
        <ele>1093.369140625</ele>
        <time>2020-10-16T11:55:29.439Z</time>
      </trkpt>
      <trkpt lat="44.72323" lon="3.77124">
        <ele>1094.2648925781</ele>
        <time>2020-10-16T11:55:29.999Z</time>
      </trkpt>
      <trkpt lat="44.72318" lon="3.77113">
        <ele>1095.0814208984</ele>
        <time>2020-10-16T11:55:30.560Z</time>
      </trkpt>
      <trkpt lat="44.72313" lon="3.771">
        <ele>1095.7781982422</ele>
        <time>2020-10-16T11:55:31.124Z</time>
      </trkpt>
      <trkpt lat="44.72305" lon="3.77091">
        <ele>1096.3021240234</ele>
        <time>2020-10-16T11:55:31.689Z</time>
      </trkpt>
      <trkpt lat="44.72301" lon="3.77084">
        <ele>1096.5744628906</ele>
        <time>2020-10-16T11:55:32.256Z</time>
      </trkpt>
      <trkpt lat="44.72296" lon="3.77072">
        <ele>1096.8510742188</ele>
        <time>2020-10-16T11:55:32.825Z</time>
      </trkpt>
      <trkpt lat="44.7229" lon="3.77062">
        <ele>1097.2591552734</ele>
        <time>2020-10-16T11:55:33.396Z</time>
      </trkpt>
      <trkpt lat="44.72286" lon="3.77052">
        <ele>1097.4360351562</ele>
        <time>2020-10-16T11:55:33.968Z</time>
      </trkpt>
      <trkpt lat="44.7228" lon="3.77041">
        <ele>1097.5849609375</ele>
        <time>2020-10-16T11:55:34.542Z</time>
      </trkpt>
      <trkpt lat="44.72273" lon="3.77028">
        <ele>1097.7416992188</ele>
        <time>2020-10-16T11:55:35.119Z</time>
      </trkpt>
      <trkpt lat="44.72266" lon="3.77009">
        <ele>1097.8713378906</ele>
        <time>2020-10-16T11:55:35.699Z</time>
      </trkpt>
      <trkpt lat="44.7226" lon="3.76998">
        <ele>1098.0297851562</ele>
        <time>2020-10-16T11:55:36.281Z</time>
      </trkpt>
      <trkpt lat="44.72256" lon="3.76984">
        <ele>1097.9710693359</ele>
        <time>2020-10-16T11:55:36.865Z</time>
      </trkpt>
      <trkpt lat="44.72254" lon="3.76976">
        <ele>1097.9133300781</ele>
        <time>2020-10-16T11:55:37.450Z</time>
      </trkpt>
      <trkpt lat="44.72251" lon="3.76971">
        <ele>1097.9880371094</ele>
        <time>2020-10-16T11:55:38.036Z</time>
      </trkpt>
      <trkpt lat="44.72247" lon="3.7697">
        <ele>1098.1695556641</ele>
        <time>2020-10-16T11:55:38.623Z</time>
      </trkpt>
      <trkpt lat="44.72242" lon="3.76966">
        <ele>1098.3670654297</ele>
        <time>2020-10-16T11:55:39.211Z</time>
      </trkpt>
      <trkpt lat="44.72239" lon="3.76954">
        <ele>1098.2703857422</ele>
        <time>2020-10-16T11:55:39.801Z</time>
      </trkpt>
      <trkpt lat="44.72226" lon="3.76927">
        <ele>1098.5329589844</ele>
        <time>2020-10-16T11:55:40.395Z</time>
      </trkpt>
      <trkpt lat="44.72212" lon="3.76897">
        <ele>1099.0339355469</ele>
        <time>2020-10-16T11:55:40.995Z</time>
      </trkpt>
      <trkpt lat="44.72198" lon="3.76867">
        <ele>1099.0086669922</ele>
        <time>2020-10-16T11:55:41.600Z</time>
      </trkpt>
      <trkpt lat="44.72195" lon="3.76856">
        <ele>1098.8114013672</ele>
        <time>2020-10-16T11:55:42.206Z</time>
      </trkpt>
      <trkpt lat="44.72192" lon="3.76835">
        <ele>1097.8054199219</ele>
        <time>2020-10-16T11:55:42.815Z</time>
      </trkpt>
      <trkpt lat="44.72183" lon="3.76807">
        <ele>1096.6336669922</ele>
        <time>2020-10-16T11:55:43.429Z</time>
      </trkpt>
      <trkpt lat="44.72178" lon="3.76788">
        <ele>1095.8273925781</ele>
        <time>2020-10-16T11:55:44.046Z</time>
      </trkpt>
      <trkpt lat="44.72168" lon="3.76763">
        <ele>1094.6723632812</ele>
        <time>2020-10-16T11:55:44.667Z</time>
      </trkpt>
      <trkpt lat="44.72159" lon="3.76725">
        <ele>1093.1276855469</ele>
        <time>2020-10-16T11:55:45.293Z</time>
      </trkpt>
      <trkpt lat="44.7215" lon="3.76691">
        <ele>1090.5660400391</ele>
        <time>2020-10-16T11:55:45.925Z</time>
      </trkpt>
      <trkpt lat="44.72145" lon="3.76674">
        <ele>1089.6479492188</ele>
        <time>2020-10-16T11:55:46.559Z</time>
      </trkpt>
      <trkpt lat="44.72139" lon="3.76658">
        <ele>1088.7877197266</ele>
        <time>2020-10-16T11:55:47.196Z</time>
      </trkpt>
      <trkpt lat="44.72136" lon="3.76642">
        <ele>1087.9854736328</ele>
        <time>2020-10-16T11:55:47.835Z</time>
      </trkpt>
      <trkpt lat="44.72132" lon="3.76628">
        <ele>1087.271484375</ele>
        <time>2020-10-16T11:55:48.476Z</time>
      </trkpt>
      <trkpt lat="44.72129" lon="3.76618">
        <ele>1086.7590332031</ele>
        <time>2020-10-16T11:55:49.119Z</time>
      </trkpt>
      <trkpt lat="44.72127" lon="3.76565">
        <ele>1085.7691650391</ele>
        <time>2020-10-16T11:55:49.769Z</time>
      </trkpt>
      <trkpt lat="44.72119" lon="3.76499">
        <ele>1084.1315917969</ele>
        <time>2020-10-16T11:55:50.429Z</time>
      </trkpt>
      <trkpt lat="44.72118" lon="3.76459">
        <ele>1082.6837158203</ele>
        <time>2020-10-16T11:55:51.095Z</time>
      </trkpt>
      <trkpt lat="44.72122" lon="3.76419">
        <ele>1080.9249267578</ele>
        <time>2020-10-16T11:55:51.766Z</time>
      </trkpt>
      <trkpt lat="44.7213" lon="3.76361">
        <ele>1077.6437988281</ele>
        <time>2020-10-16T11:55:52.446Z</time>
      </trkpt>
      <trkpt lat="44.72137" lon="3.76334">
        <ele>1077.3479003906</ele>
        <time>2020-10-16T11:55:53.130Z</time>
      </trkpt>
      <trkpt lat="44.72141" lon="3.76326">
        <ele>1077.3881835938</ele>
        <time>2020-10-16T11:55:53.815Z</time>
      </trkpt>
      <trkpt lat="44.72153" lon="3.76306">
        <ele>1077.5865478516</ele>
        <time>2020-10-16T11:55:54.504Z</time>
      </trkpt>
      <trkpt lat="44.72179" lon="3.76256">
        <ele>1076.3322753906</ele>
        <time>2020-10-16T11:55:55.202Z</time>
      </trkpt>
      <trkpt lat="44.72184" lon="3.76249">
        <ele>1076.2696533203</ele>
        <time>2020-10-16T11:55:55.901Z</time>
      </trkpt>
      <trkpt lat="44.7219" lon="3.76245">
        <ele>1076.3452148438</ele>
        <time>2020-10-16T11:55:56.601Z</time>
      </trkpt>
      <trkpt lat="44.7221" lon="3.76236">
        <ele>1076.7996826172</ele>
        <time>2020-10-16T11:55:57.306Z</time>
      </trkpt>
      <trkpt lat="44.72229" lon="3.76228">
        <ele>1077.4116210938</ele>
        <time>2020-10-16T11:55:58.015Z</time>
      </trkpt>
      <trkpt lat="44.7225" lon="3.76229">
        <ele>1078.4078369141</ele>
        <time>2020-10-16T11:55:58.728Z</time>
      </trkpt>
      <trkpt lat="44.72263" lon="3.76223">
        <ele>1079.6600341797</ele>
        <time>2020-10-16T11:55:59.444Z</time>
      </trkpt>
      <trkpt lat="44.7228" lon="3.76221">
        <ele>1081.2459716797</ele>
        <time>2020-10-16T11:56:00.163Z</time>
      </trkpt>
      <trkpt lat="44.72291" lon="3.76212">
        <ele>1082.0725097656</ele>
        <time>2020-10-16T11:56:00.885Z</time>
      </trkpt>
      <trkpt lat="44.72309" lon="3.76202">
        <ele>1082.9771728516</ele>
        <time>2020-10-16T11:56:01.610Z</time>
      </trkpt>
      <trkpt lat="44.72327" lon="3.76193">
        <ele>1085.6500244141</ele>
        <time>2020-10-16T11:56:02.339Z</time>
      </trkpt>
      <trkpt lat="44.72349" lon="3.76187">
        <ele>1088.1845703125</ele>
        <time>2020-10-16T11:56:03.073Z</time>
      </trkpt>
      <trkpt lat="44.72386" lon="3.76176">
        <ele>1090.5463867188</ele>
        <time>2020-10-16T11:56:03.814Z</time>
      </trkpt>
      <trkpt lat="44.72401" lon="3.7617">
        <ele>1091.1120605469</ele>
        <time>2020-10-16T11:56:04.559Z</time>
      </trkpt>
      <trkpt lat="44.72427" lon="3.76153">
        <ele>1092.3209228516</ele>
        <time>2020-10-16T11:56:05.309Z</time>
      </trkpt>
      <trkpt lat="44.72445" lon="3.76139">
        <ele>1094.1341552734</ele>
        <time>2020-10-16T11:56:06.063Z</time>
      </trkpt>
      <trkpt lat="44.72454" lon="3.76132">
        <ele>1095.0439453125</ele>
        <time>2020-10-16T11:56:06.819Z</time>
      </trkpt>
      <trkpt lat="44.72472" lon="3.76122">
        <ele>1096.4377441406</ele>
        <time>2020-10-16T11:56:07.579Z</time>
      </trkpt>
      <trkpt lat="44.72485" lon="3.76118">
        <ele>1096.9610595703</ele>
        <time>2020-10-16T11:56:08.342Z</time>
      </trkpt>
      <trkpt lat="44.72497" lon="3.76116">
        <ele>1097.4001464844</ele>
        <time>2020-10-16T11:56:09.107Z</time>
      </trkpt>
      <trkpt lat="44.72515" lon="3.76111">
        <ele>1098.1154785156</ele>
        <time>2020-10-16T11:56:09.876Z</time>
      </trkpt>
      <trkpt lat="44.72532" lon="3.76106">
        <ele>1098.7836914062</ele>
        <time>2020-10-16T11:56:10.648Z</time>
      </trkpt>
      <trkpt lat="44.72544" lon="3.76105">
        <ele>1098.8598632812</ele>
        <time>2020-10-16T11:56:11.423Z</time>
      </trkpt>
      <trkpt lat="44.72564" lon="3.76102">
        <ele>1098.265625</ele>
        <time>2020-10-16T11:56:12.202Z</time>
      </trkpt>
      <trkpt lat="44.72582" lon="3.76099">
        <ele>1097.6346435547</ele>
        <time>2020-10-16T11:56:12.985Z</time>
      </trkpt>
      <trkpt lat="44.72598" lon="3.76091">
        <ele>1096.9039306641</ele>
        <time>2020-10-16T11:56:13.771Z</time>
      </trkpt>
      <trkpt lat="44.72607" lon="3.7609">
        <ele>1096.5637207031</ele>
        <time>2020-10-16T11:56:14.559Z</time>
      </trkpt>
      <trkpt lat="44.72622" lon="3.7609">
        <ele>1095.8100585938</ele>
        <time>2020-10-16T11:56:15.350Z</time>
      </trkpt>
      <trkpt lat="44.7263" lon="3.76088">
        <ele>1094.7384033203</ele>
        <time>2020-10-16T11:56:16.142Z</time>
      </trkpt>
      <trkpt lat="44.7264" lon="3.76078">
        <ele>1092.9577636719</ele>
        <time>2020-10-16T11:56:16.937Z</time>
      </trkpt>
      <trkpt lat="44.72654" lon="3.76063">
        <ele>1090.4416503906</ele>
        <time>2020-10-16T11:56:17.735Z</time>
      </trkpt>
      <trkpt lat="44.72662" lon="3.7605">
        <ele>1089.4963378906</ele>
        <time>2020-10-16T11:56:18.536Z</time>
      </trkpt>
      <trkpt lat="44.72665" lon="3.76039">
        <ele>1089.3840332031</ele>
        <time>2020-10-16T11:56:19.338Z</time>
      </trkpt>
      <trkpt lat="44.72683" lon="3.7601">
        <ele>1087.9188232422</ele>
        <time>2020-10-16T11:56:20.146Z</time>
      </trkpt>
      <trkpt lat="44.72692" lon="3.75991">
        <ele>1087.7751464844</ele>
        <time>2020-10-16T11:56:20.957Z</time>
      </trkpt>
      <trkpt lat="44.72698" lon="3.75977">
        <ele>1088.2393798828</ele>
        <time>2020-10-16T11:56:21.770Z</time>
      </trkpt>
      <trkpt lat="44.72712" lon="3.75969">
        <ele>1088.1252441406</ele>
        <time>2020-10-16T11:56:22.587Z</time>
      </trkpt>
      <trkpt lat="44.72729" lon="3.75956">
        <ele>1087.6046142578</ele>
        <time>2020-10-16T11:56:23.407Z</time>
      </trkpt>
      <trkpt lat="44.72742" lon="3.75943">
        <ele>1088.1912841797</ele>
        <time>2020-10-16T11:56:24.231Z</time>
      </trkpt>
      <trkpt lat="44.72754" lon="3.75931">
        <ele>1088.6413574219</ele>
        <time>2020-10-16T11:56:25.057Z</time>
      </trkpt>
      <trkpt lat="44.72763" lon="3.7592">
        <ele>1088.9291992188</ele>
        <time>2020-10-16T11:56:25.886Z</time>
      </trkpt>
      <trkpt lat="44.72772" lon="3.75908">
        <ele>1089.5872802734</ele>
        <time>2020-10-16T11:56:26.717Z</time>
      </trkpt>
      <trkpt lat="44.72778" lon="3.75897">
        <ele>1090.3631591797</ele>
        <time>2020-10-16T11:56:27.550Z</time>
      </trkpt>
      <trkpt lat="44.72784" lon="3.75887">
        <ele>1091.0228271484</ele>
        <time>2020-10-16T11:56:28.385Z</time>
      </trkpt>
      <trkpt lat="44.72795" lon="3.75875">
        <ele>1092.072265625</ele>
        <time>2020-10-16T11:56:29.223Z</time>
      </trkpt>
      <trkpt lat="44.72807" lon="3.75863">
        <ele>1092.7932128906</ele>
        <time>2020-10-16T11:56:30.064Z</time>
      </trkpt>
      <trkpt lat="44.72833" lon="3.7584">
        <ele>1093</ele>
        <time>2020-10-16T11:56:30.911Z</time>
      </trkpt>
      <trkpt lat="44.72842" lon="3.75831">
        <ele>1093</ele>
        <time>2020-10-16T11:56:31.760Z</time>
      </trkpt>
      <trkpt lat="44.72853" lon="3.75823">
        <ele>1093.1711425781</ele>
        <time>2020-10-16T11:56:32.612Z</time>
      </trkpt>
      <trkpt lat="44.72888" lon="3.75787">
        <ele>1093.7800292969</ele>
        <time>2020-10-16T11:56:33.473Z</time>
      </trkpt>
      <trkpt lat="44.7293" lon="3.75719">
        <ele>1093.4871826172</ele>
        <time>2020-10-16T11:56:34.346Z</time>
      </trkpt>
      <trkpt lat="44.72953" lon="3.75686">
        <ele>1093.0249023438</ele>
        <time>2020-10-16T11:56:35.226Z</time>
      </trkpt>
      <trkpt lat="44.72975" lon="3.75656">
        <ele>1092.5064697266</ele>
        <time>2020-10-16T11:56:36.112Z</time>
      </trkpt>
      <trkpt lat="44.72981" lon="3.75631">
        <ele>1092.6937255859</ele>
        <time>2020-10-16T11:56:37.002Z</time>
      </trkpt>
      <trkpt lat="44.72998" lon="3.75648">
        <ele>1091.2854003906</ele>
        <time>2020-10-16T11:56:37.896Z</time>
      </trkpt>
      <trkpt lat="44.73014" lon="3.75654">
        <ele>1090.2069091797</ele>
        <time>2020-10-16T11:56:38.793Z</time>
      </trkpt>
      <trkpt lat="44.73031" lon="3.75657">
        <ele>1089.0740966797</ele>
        <time>2020-10-16T11:56:39.694Z</time>
      </trkpt>
      <trkpt lat="44.73055" lon="3.75675">
        <ele>1086.9892578125</ele>
        <time>2020-10-16T11:56:40.600Z</time>
      </trkpt>
      <trkpt lat="44.73106" lon="3.757">
        <ele>1083.0335693359</ele>
        <time>2020-10-16T11:56:41.517Z</time>
      </trkpt>
      <trkpt lat="44.73149" lon="3.75727">
        <ele>1080.6281738281</ele>
        <time>2020-10-16T11:56:42.443Z</time>
      </trkpt>
      <trkpt lat="44.7316" lon="3.75733">
        <ele>1080.0921630859</ele>
        <time>2020-10-16T11:56:43.372Z</time>
      </trkpt>
      <trkpt lat="44.73182" lon="3.75739">
        <ele>1078.9573974609</ele>
        <time>2020-10-16T11:56:44.305Z</time>
      </trkpt>
      <trkpt lat="44.73198" lon="3.7574">
        <ele>1077.9942626953</ele>
        <time>2020-10-16T11:56:45.241Z</time>
      </trkpt>
      <trkpt lat="44.73218" lon="3.75744">
        <ele>1076.1828613281</ele>
        <time>2020-10-16T11:56:46.181Z</time>
      </trkpt>
      <trkpt lat="44.73234" lon="3.75753">
        <ele>1074.5339355469</ele>
        <time>2020-10-16T11:56:47.125Z</time>
      </trkpt>
      <trkpt lat="44.73245" lon="3.75766">
        <ele>1073.4624023438</ele>
        <time>2020-10-16T11:56:48.072Z</time>
      </trkpt>
      <trkpt lat="44.73253" lon="3.75787">
        <ele>1073.0634765625</ele>
        <time>2020-10-16T11:56:49.022Z</time>
      </trkpt>
      <trkpt lat="44.73259" lon="3.75813">
        <ele>1073.0705566406</ele>
        <time>2020-10-16T11:56:49.976Z</time>
      </trkpt>
      <trkpt lat="44.73262" lon="3.7582">
        <ele>1072.9592285156</ele>
        <time>2020-10-16T11:56:50.931Z</time>
      </trkpt>
      <trkpt lat="44.7327" lon="3.75838">
        <ele>1072.3864746094</ele>
        <time>2020-10-16T11:56:51.889Z</time>
      </trkpt>
      <trkpt lat="44.73282" lon="3.75849">
        <ele>1071.4465332031</ele>
        <time>2020-10-16T11:56:52.850Z</time>
      </trkpt>
      <trkpt lat="44.73301" lon="3.75858">
        <ele>1068.5045166016</ele>
        <time>2020-10-16T11:56:53.815Z</time>
      </trkpt>
      <trkpt lat="44.73322" lon="3.75874">
        <ele>1064.2661132812</ele>
        <time>2020-10-16T11:56:54.785Z</time>
      </trkpt>
      <trkpt lat="44.73334" lon="3.75888">
        <ele>1061.8364257812</ele>
        <time>2020-10-16T11:56:55.758Z</time>
      </trkpt>
      <trkpt lat="44.73338" lon="3.759">
        <ele>1060.8187255859</ele>
        <time>2020-10-16T11:56:56.733Z</time>
      </trkpt>
      <trkpt lat="44.73342" lon="3.75916">
        <ele>1059.5610351562</ele>
        <time>2020-10-16T11:56:57.710Z</time>
      </trkpt>
      <trkpt lat="44.73346" lon="3.75934">
        <ele>1057.9689941406</ele>
        <time>2020-10-16T11:56:58.690Z</time>
      </trkpt>
      <trkpt lat="44.73359" lon="3.75966">
        <ele>1053.185546875</ele>
        <time>2020-10-16T11:56:59.675Z</time>
      </trkpt>
      <trkpt lat="44.73384" lon="3.7603">
        <ele>1044.4848632812</ele>
        <time>2020-10-16T11:57:00.671Z</time>
      </trkpt>
      <trkpt lat="44.73388" lon="3.76044">
        <ele>1042.9467773438</ele>
        <time>2020-10-16T11:57:01.669Z</time>
      </trkpt>
      <trkpt lat="44.73413" lon="3.76105">
        <ele>1034.9820556641</ele>
        <time>2020-10-16T11:57:02.677Z</time>
      </trkpt>
      <trkpt lat="44.73433" lon="3.76159">
        <ele>1033.7017822266</ele>
        <time>2020-10-16T11:57:03.693Z</time>
      </trkpt>
      <trkpt lat="44.73448" lon="3.76196">
        <ele>1032.3432617188</ele>
        <time>2020-10-16T11:57:04.716Z</time>
      </trkpt>
      <trkpt lat="44.73503" lon="3.76303">
        <ele>1024.3090820312</ele>
        <time>2020-10-16T11:57:05.757Z</time>
      </trkpt>
      <trkpt lat="44.73523" lon="3.76346">
        <ele>1020.9440307617</ele>
        <time>2020-10-16T11:57:06.806Z</time>
      </trkpt>
      <trkpt lat="44.73537" lon="3.76366">
        <ele>1019.168762207</ele>
        <time>2020-10-16T11:57:07.859Z</time>
      </trkpt>
      <trkpt lat="44.73562" lon="3.76399">
        <ele>1015.035949707</ele>
        <time>2020-10-16T11:57:08.918Z</time>
      </trkpt>
      <trkpt lat="44.73569" lon="3.76413">
        <ele>1013.4752197266</ele>
        <time>2020-10-16T11:57:09.980Z</time>
      </trkpt>
      <trkpt lat="44.73573" lon="3.76421">
        <ele>1012.6314086914</ele>
        <time>2020-10-16T11:57:11.043Z</time>
      </trkpt>
      <trkpt lat="44.73579" lon="3.76428">
        <ele>1011.6634521484</ele>
        <time>2020-10-16T11:57:12.108Z</time>
      </trkpt>
      <trkpt lat="44.73589" lon="3.76438">
        <ele>1010.2720947266</ele>
        <time>2020-10-16T11:57:13.175Z</time>
      </trkpt>
      <trkpt lat="44.73597" lon="3.76447">
        <ele>1009.2663574219</ele>
        <time>2020-10-16T11:57:14.244Z</time>
      </trkpt>
      <trkpt lat="44.73606" lon="3.76458">
        <ele>1008.0496826172</ele>
        <time>2020-10-16T11:57:15.316Z</time>
      </trkpt>
      <trkpt lat="44.7361" lon="3.76468">
        <ele>1007.2970581055</ele>
        <time>2020-10-16T11:57:16.389Z</time>
      </trkpt>
      <trkpt lat="44.73614" lon="3.76483">
        <ele>1006.3618164062</ele>
        <time>2020-10-16T11:57:17.465Z</time>
      </trkpt>
      <trkpt lat="44.73618" lon="3.76515">
        <ele>1004.4700317383</ele>
        <time>2020-10-16T11:57:18.545Z</time>
      </trkpt>
      <trkpt lat="44.7363" lon="3.76562">
        <ele>1004.4879760742</ele>
        <time>2020-10-16T11:57:19.632Z</time>
      </trkpt>
      <trkpt lat="44.73646" lon="3.76602">
        <ele>1004.9705810547</ele>
        <time>2020-10-16T11:57:20.726Z</time>
      </trkpt>
      <trkpt lat="44.73658" lon="3.76626">
        <ele>1006.5491943359</ele>
        <time>2020-10-16T11:57:21.824Z</time>
      </trkpt>
      <trkpt lat="44.73678" lon="3.76658">
        <ele>1008.8584594727</ele>
        <time>2020-10-16T11:57:22.928Z</time>
      </trkpt>
      <trkpt lat="44.73698" lon="3.76681">
        <ele>1010.4839477539</ele>
        <time>2020-10-16T11:57:24.037Z</time>
      </trkpt>
      <trkpt lat="44.73714" lon="3.76705">
        <ele>1012.3587646484</ele>
        <time>2020-10-16T11:57:25.151Z</time>
      </trkpt>
      <trkpt lat="44.73726" lon="3.76727">
        <ele>1014.1557006836</ele>
        <time>2020-10-16T11:57:26.269Z</time>
      </trkpt>
      <trkpt lat="44.73737" lon="3.76745">
        <ele>1015.5804443359</ele>
        <time>2020-10-16T11:57:27.390Z</time>
      </trkpt>
      <trkpt lat="44.73746" lon="3.76756">
        <ele>1016.581237793</ele>
        <time>2020-10-16T11:57:28.514Z</time>
      </trkpt>
      <trkpt lat="44.73753" lon="3.76765">
        <ele>1017.384765625</ele>
        <time>2020-10-16T11:57:29.640Z</time>
      </trkpt>
      <trkpt lat="44.7376" lon="3.76781">
        <ele>1018.7066650391</ele>
        <time>2020-10-16T11:57:30.768Z</time>
      </trkpt>
      <trkpt lat="44.73766" lon="3.76798">
        <ele>1020.1311645508</ele>
        <time>2020-10-16T11:57:31.899Z</time>
      </trkpt>
      <trkpt lat="44.73768" lon="3.76805">
        <ele>1020.7819824219</ele>
        <time>2020-10-16T11:57:33.031Z</time>
      </trkpt>
      <trkpt lat="44.7377" lon="3.76813">
        <ele>1021.4003295898</ele>
        <time>2020-10-16T11:57:34.164Z</time>
      </trkpt>
      <trkpt lat="44.7377" lon="3.76824">
        <ele>1022.2043457031</ele>
        <time>2020-10-16T11:57:35.299Z</time>
      </trkpt>
      <trkpt lat="44.73771" lon="3.76837">
        <ele>1023.1309814453</ele>
        <time>2020-10-16T11:57:36.436Z</time>
      </trkpt>
      <trkpt lat="44.7377" lon="3.76844">
        <ele>1023.7847290039</ele>
        <time>2020-10-16T11:57:37.574Z</time>
      </trkpt>
      <trkpt lat="44.73771" lon="3.76855">
        <ele>1024.8740234375</ele>
        <time>2020-10-16T11:57:38.713Z</time>
      </trkpt>
      <trkpt lat="44.73776" lon="3.76872">
        <ele>1026.1260986328</ele>
        <time>2020-10-16T11:57:39.855Z</time>
      </trkpt>
      <trkpt lat="44.73782" lon="3.76886">
        <ele>1027.2349853516</ele>
        <time>2020-10-16T11:57:40.999Z</time>
      </trkpt>
      <trkpt lat="44.73795" lon="3.76907">
        <ele>1028.5834960938</ele>
        <time>2020-10-16T11:57:42.147Z</time>
      </trkpt>
      <trkpt lat="44.73799" lon="3.76919">
        <ele>1029.3793945312</ele>
        <time>2020-10-16T11:57:43.297Z</time>
      </trkpt>
      <trkpt lat="44.73815" lon="3.76929">
        <ele>1029.6840820312</ele>
        <time>2020-10-16T11:57:44.451Z</time>
      </trkpt>
      <trkpt lat="44.73822" lon="3.76935">
        <ele>1029.9865722656</ele>
        <time>2020-10-16T11:57:45.606Z</time>
      </trkpt>
      <trkpt lat="44.7383" lon="3.76953">
        <ele>1030.1635742188</ele>
        <time>2020-10-16T11:57:46.764Z</time>
      </trkpt>
      <trkpt lat="44.7384" lon="3.7698">
        <ele>1030.2526855469</ele>
        <time>2020-10-16T11:57:47.927Z</time>
      </trkpt>
      <trkpt lat="44.73846" lon="3.77001">
        <ele>1030.3564453125</ele>
        <time>2020-10-16T11:57:49.093Z</time>
      </trkpt>
      <trkpt lat="44.7385" lon="3.7702">
        <ele>1030.4870605469</ele>
        <time>2020-10-16T11:57:50.262Z</time>
      </trkpt>
      <trkpt lat="44.73851" lon="3.77039">
        <ele>1029.6353759766</ele>
        <time>2020-10-16T11:57:51.433Z</time>
      </trkpt>
      <trkpt lat="44.73854" lon="3.77081">
        <ele>1027.5480957031</ele>
        <time>2020-10-16T11:57:52.610Z</time>
      </trkpt>
      <trkpt lat="44.73855" lon="3.77117">
        <ele>1026.1669921875</ele>
        <time>2020-10-16T11:57:53.793Z</time>
      </trkpt>
      <trkpt lat="44.73855" lon="3.77157">
        <ele>1024.2386474609</ele>
        <time>2020-10-16T11:57:54.981Z</time>
      </trkpt>
      <trkpt lat="44.73855" lon="3.77175">
        <ele>1023.4600219727</ele>
        <time>2020-10-16T11:57:56.172Z</time>
      </trkpt>
      <trkpt lat="44.7386" lon="3.77204">
        <ele>1022.9893188477</ele>
        <time>2020-10-16T11:57:57.367Z</time>
      </trkpt>
      <trkpt lat="44.73871" lon="3.77231">
        <ele>1022.5263671875</ele>
        <time>2020-10-16T11:57:58.567Z</time>
      </trkpt>
      <trkpt lat="44.7388" lon="3.77253">
        <ele>1022.4611206055</ele>
        <time>2020-10-16T11:57:59.770Z</time>
      </trkpt>
      <trkpt lat="44.73888" lon="3.77279">
        <ele>1022.5765991211</ele>
        <time>2020-10-16T11:58:00.977Z</time>
      </trkpt>
      <trkpt lat="44.73893" lon="3.77293">
        <ele>1022.6971435547</ele>
        <time>2020-10-16T11:58:02.186Z</time>
      </trkpt>
      <trkpt lat="44.73906" lon="3.77301">
        <ele>1022.4465942383</ele>
        <time>2020-10-16T11:58:03.398Z</time>
      </trkpt>
      <trkpt lat="44.73926" lon="3.77316">
        <ele>1022.0901489258</ele>
        <time>2020-10-16T11:58:04.615Z</time>
      </trkpt>
      <trkpt lat="44.73944" lon="3.77332">
        <ele>1021.8134155273</ele>
        <time>2020-10-16T11:58:05.836Z</time>
      </trkpt>
      <trkpt lat="44.73955" lon="3.77347">
        <ele>1021.7749023438</ele>
        <time>2020-10-16T11:58:07.060Z</time>
      </trkpt>
      <trkpt lat="44.73971" lon="3.77369">
        <ele>1020.4836425781</ele>
        <time>2020-10-16T11:58:08.289Z</time>
      </trkpt>
      <trkpt lat="44.73987" lon="3.77385">
        <ele>1018.9461669922</ele>
        <time>2020-10-16T11:58:09.522Z</time>
      </trkpt>
      <trkpt lat="44.74005" lon="3.77399">
        <ele>1017.4063720703</ele>
        <time>2020-10-16T11:58:10.759Z</time>
      </trkpt>
      <trkpt lat="44.74022" lon="3.77413">
        <ele>1015.9279785156</ele>
        <time>2020-10-16T11:58:12.000Z</time>
      </trkpt>
      <trkpt lat="44.74038" lon="3.7743">
        <ele>1014.3186645508</ele>
        <time>2020-10-16T11:58:13.245Z</time>
      </trkpt>
      <trkpt lat="44.74047" lon="3.77437">
        <ele>1013.6213989258</ele>
        <time>2020-10-16T11:58:14.492Z</time>
      </trkpt>
      <trkpt lat="44.74069" lon="3.77445">
        <ele>1011.8237304688</ele>
        <time>2020-10-16T11:58:15.743Z</time>
      </trkpt>
      <trkpt lat="44.74095" lon="3.77451">
        <ele>1009.9361572266</ele>
        <time>2020-10-16T11:58:17.000Z</time>
      </trkpt>
      <trkpt lat="44.74121" lon="3.77461">
        <ele>1007.7728881836</ele>
        <time>2020-10-16T11:58:18.262Z</time>
      </trkpt>
      <trkpt lat="44.74146" lon="3.77472">
        <ele>1004.6109008789</ele>
        <time>2020-10-16T11:58:19.529Z</time>
      </trkpt>
      <trkpt lat="44.74176" lon="3.77487">
        <ele>1000.6392211914</ele>
        <time>2020-10-16T11:58:20.802Z</time>
      </trkpt>
      <trkpt lat="44.74195" lon="3.775">
        <ele>997.67687988281</ele>
        <time>2020-10-16T11:58:22.080Z</time>
      </trkpt>
      <trkpt lat="44.74216" lon="3.77515">
        <ele>994.87255859375</ele>
        <time>2020-10-16T11:58:23.362Z</time>
      </trkpt>
      <trkpt lat="44.74235" lon="3.77523">
        <ele>993.08557128906</ele>
        <time>2020-10-16T11:58:24.648Z</time>
      </trkpt>
      <trkpt lat="44.74255" lon="3.77536">
        <ele>991.44732666016</ele>
        <time>2020-10-16T11:58:25.939Z</time>
      </trkpt>
      <trkpt lat="44.74275" lon="3.77551">
        <ele>989.66986083984</ele>
        <time>2020-10-16T11:58:27.234Z</time>
      </trkpt>
      <trkpt lat="44.74288" lon="3.77562">
        <ele>988.53979492188</ele>
        <time>2020-10-16T11:58:28.532Z</time>
      </trkpt>
      <trkpt lat="44.74294" lon="3.77572">
        <ele>988.24340820312</ele>
        <time>2020-10-16T11:58:29.832Z</time>
      </trkpt>
      <trkpt lat="44.74301" lon="3.77588">
        <ele>987.75537109375</ele>
        <time>2020-10-16T11:58:31.135Z</time>
      </trkpt>
      <trkpt lat="44.74306" lon="3.77606">
        <ele>987.09985351562</ele>
        <time>2020-10-16T11:58:32.441Z</time>
      </trkpt>
      <trkpt lat="44.74311" lon="3.77619">
        <ele>986.27838134766</ele>
        <time>2020-10-16T11:58:33.749Z</time>
      </trkpt>
      <trkpt lat="44.74318" lon="3.77624">
        <ele>985.96429443359</ele>
        <time>2020-10-16T11:58:35.058Z</time>
      </trkpt>
      <trkpt lat="44.74327" lon="3.77628">
        <ele>985.77172851562</ele>
        <time>2020-10-16T11:58:36.369Z</time>
      </trkpt>
      <trkpt lat="44.74334" lon="3.77639">
        <ele>985.09777832031</ele>
        <time>2020-10-16T11:58:37.682Z</time>
      </trkpt>
      <trkpt lat="44.7434" lon="3.77644">
        <ele>984.7685546875</ele>
        <time>2020-10-16T11:58:38.997Z</time>
      </trkpt>
      <trkpt lat="44.74351" lon="3.77657">
        <ele>983.98266601562</ele>
        <time>2020-10-16T11:58:40.314Z</time>
      </trkpt>
      <trkpt lat="44.7436" lon="3.77673">
        <ele>982.97747802734</ele>
        <time>2020-10-16T11:58:41.634Z</time>
      </trkpt>
      <trkpt lat="44.74366" lon="3.77687">
        <ele>982.44482421875</ele>
        <time>2020-10-16T11:58:42.957Z</time>
      </trkpt>
      <trkpt lat="44.7438" lon="3.77698">
        <ele>980.76507568359</ele>
        <time>2020-10-16T11:58:44.283Z</time>
      </trkpt>
      <trkpt lat="44.74393" lon="3.77706">
        <ele>979.34771728516</ele>
        <time>2020-10-16T11:58:45.612Z</time>
      </trkpt>
      <trkpt lat="44.74405" lon="3.77708">
        <ele>978.50079345703</ele>
        <time>2020-10-16T11:58:46.943Z</time>
      </trkpt>
      <trkpt lat="44.74416" lon="3.77701">
        <ele>978.40905761719</ele>
        <time>2020-10-16T11:58:48.277Z</time>
      </trkpt>
      <trkpt lat="44.74436" lon="3.77695">
        <ele>977.61737060547</ele>
        <time>2020-10-16T11:58:49.615Z</time>
      </trkpt>
      <trkpt lat="44.74445" lon="3.77687">
        <ele>977.6005859375</ele>
        <time>2020-10-16T11:58:50.955Z</time>
      </trkpt>
      <trkpt lat="44.74456" lon="3.77678">
        <ele>977.94409179688</ele>
        <time>2020-10-16T11:58:52.297Z</time>
      </trkpt>
      <trkpt lat="44.74468" lon="3.77676">
        <ele>977.17633056641</ele>
        <time>2020-10-16T11:58:53.642Z</time>
      </trkpt>
      <trkpt lat="44.74502" lon="3.77683">
        <ele>973.54455566406</ele>
        <time>2020-10-16T11:58:54.994Z</time>
      </trkpt>
      <trkpt lat="44.74531" lon="3.7769">
        <ele>970.30999755859</ele>
        <time>2020-10-16T11:58:56.352Z</time>
      </trkpt>
      <trkpt lat="44.74545" lon="3.77696">
        <ele>968.93084716797</ele>
        <time>2020-10-16T11:58:57.712Z</time>
      </trkpt>
      <trkpt lat="44.74555" lon="3.77704">
        <ele>967.77850341797</ele>
        <time>2020-10-16T11:58:59.075Z</time>
      </trkpt>
      <trkpt lat="44.7456" lon="3.77714">
        <ele>966.73510742188</ele>
        <time>2020-10-16T11:59:00.440Z</time>
      </trkpt>
      <trkpt lat="44.74567" lon="3.77732">
        <ele>964.72424316406</ele>
        <time>2020-10-16T11:59:01.807Z</time>
      </trkpt>
      <trkpt lat="44.74576" lon="3.77746">
        <ele>963.02618408203</ele>
        <time>2020-10-16T11:59:03.177Z</time>
      </trkpt>
      <trkpt lat="44.74593" lon="3.77753">
        <ele>961.80456542969</ele>
        <time>2020-10-16T11:59:04.551Z</time>
      </trkpt>
      <trkpt lat="44.74614" lon="3.77754">
        <ele>960.64331054688</ele>
        <time>2020-10-16T11:59:05.929Z</time>
      </trkpt>
      <trkpt lat="44.74636" lon="3.77754">
        <ele>959.87530517578</ele>
        <time>2020-10-16T11:59:07.311Z</time>
      </trkpt>
      <trkpt lat="44.74644" lon="3.77755">
        <ele>959.60662841797</ele>
        <time>2020-10-16T11:59:08.695Z</time>
      </trkpt>
      <trkpt lat="44.74658" lon="3.77761">
        <ele>958.88934326172</ele>
        <time>2020-10-16T11:59:10.082Z</time>
      </trkpt>
      <trkpt lat="44.74671" lon="3.77765">
        <ele>958.25842285156</ele>
        <time>2020-10-16T11:59:11.472Z</time>
      </trkpt>
      <trkpt lat="44.74677" lon="3.77772">
        <ele>957.71221923828</ele>
        <time>2020-10-16T11:59:12.863Z</time>
      </trkpt>
      <trkpt lat="44.74669" lon="3.77782">
        <ele>958.35321044922</ele>
        <time>2020-10-16T11:59:14.256Z</time>
      </trkpt>
      <trkpt lat="44.74653" lon="3.77801">
        <ele>959.6845703125</ele>
        <time>2020-10-16T11:59:15.653Z</time>
      </trkpt>
      <trkpt lat="44.74632" lon="3.77829">
        <ele>962.63366699219</ele>
        <time>2020-10-16T11:59:17.056Z</time>
      </trkpt>
      <trkpt lat="44.74612" lon="3.77858">
        <ele>965.13922119141</ele>
        <time>2020-10-16T11:59:18.465Z</time>
      </trkpt>
      <trkpt lat="44.746" lon="3.77874">
        <ele>965.47601318359</ele>
        <time>2020-10-16T11:59:19.877Z</time>
      </trkpt>
      <trkpt lat="44.7458" lon="3.77895">
        <ele>965.98120117188</ele>
        <time>2020-10-16T11:59:21.294Z</time>
      </trkpt>
      <trkpt lat="44.7456" lon="3.77914">
        <ele>969.53234863281</ele>
        <time>2020-10-16T11:59:22.716Z</time>
      </trkpt>
      <trkpt lat="44.74541" lon="3.77927">
        <ele>972.60302734375</ele>
        <time>2020-10-16T11:59:24.142Z</time>
      </trkpt>
      <trkpt lat="44.74527" lon="3.77944">
        <ele>973.88708496094</ele>
        <time>2020-10-16T11:59:25.572Z</time>
      </trkpt>
      <trkpt lat="44.74517" lon="3.77959">
        <ele>974.00915527344</ele>
        <time>2020-10-16T11:59:27.005Z</time>
      </trkpt>
      <trkpt lat="44.74498" lon="3.77967">
        <ele>973.75408935547</ele>
        <time>2020-10-16T11:59:28.442Z</time>
      </trkpt>
      <trkpt lat="44.74479" lon="3.77972">
        <ele>974.1337890625</ele>
        <time>2020-10-16T11:59:29.883Z</time>
      </trkpt>
      <trkpt lat="44.74467" lon="3.77979">
        <ele>975.32891845703</ele>
        <time>2020-10-16T11:59:31.326Z</time>
      </trkpt>
      <trkpt lat="44.74458" lon="3.77996">
        <ele>977.39233398438</ele>
        <time>2020-10-16T11:59:32.772Z</time>
      </trkpt>
      <trkpt lat="44.74452" lon="3.78011">
        <ele>979.03033447266</ele>
        <time>2020-10-16T11:59:34.221Z</time>
      </trkpt>
      <trkpt lat="44.74444" lon="3.78028">
        <ele>979.81323242188</ele>
        <time>2020-10-16T11:59:35.673Z</time>
      </trkpt>
      <trkpt lat="44.74431" lon="3.78048">
        <ele>980.55621337891</ele>
        <time>2020-10-16T11:59:37.128Z</time>
      </trkpt>
      <trkpt lat="44.74423" lon="3.78075">
        <ele>982.01977539062</ele>
        <time>2020-10-16T11:59:38.588Z</time>
      </trkpt>
      <trkpt lat="44.74415" lon="3.78083">
        <ele>981.89831542969</ele>
        <time>2020-10-16T11:59:40.050Z</time>
      </trkpt>
      <trkpt lat="44.74399" lon="3.78083">
        <ele>980.77740478516</ele>
        <time>2020-10-16T11:59:41.515Z</time>
      </trkpt>
      <trkpt lat="44.74374" lon="3.7826">
        <ele>980.40521240234</ele>
        <time>2020-10-16T11:59:43.005Z</time>
      </trkpt>
      <trkpt lat="44.74345" lon="3.78252">
        <ele>979.86291503906</ele>
        <time>2020-10-16T11:59:44.501Z</time>
      </trkpt>
      <trkpt lat="44.74183" lon="3.78167">
        <ele>986.77038574219</ele>
        <time>2020-10-16T11:59:46.032Z</time>
      </trkpt>
      <trkpt lat="44.74177" lon="3.78137">
        <ele>988.75274658203</ele>
        <time>2020-10-16T11:59:47.567Z</time>
      </trkpt>
      <trkpt lat="44.74158" lon="3.78131">
        <ele>990.63208007812</ele>
        <time>2020-10-16T11:59:49.106Z</time>
      </trkpt>
      <trkpt lat="44.74139" lon="3.7811">
        <ele>993.19372558594</ele>
        <time>2020-10-16T11:59:50.650Z</time>
      </trkpt>
      <trkpt lat="44.74125" lon="3.78105">
        <ele>994.61694335938</ele>
        <time>2020-10-16T11:59:52.197Z</time>
      </trkpt>
      <trkpt lat="44.74057" lon="3.78135">
        <ele>1000.8960571289</ele>
        <time>2020-10-16T11:59:53.758Z</time>
      </trkpt>
      <trkpt lat="44.74031" lon="3.78136">
        <ele>1003.6088867188</ele>
        <time>2020-10-16T11:59:55.325Z</time>
      </trkpt>
      <trkpt lat="44.7394" lon="3.78101">
        <ele>1011.5963745117</ele>
        <time>2020-10-16T11:59:56.910Z</time>
      </trkpt>
      <trkpt lat="44.73848" lon="3.78053">
        <ele>1016.3458862305</ele>
        <time>2020-10-16T11:59:58.515Z</time>
      </trkpt>
    </trkseg>
  </trk>
</gpx>